Terminal Aerodrome Forecast
Issued by NWS Bismarck, ND

Home | Current Version | Previous Version | Graphics & Text | Print | Product List | Glossary On
Versions: 1 2 3 4 5 6 7 8 9 10 11 12 13 14 15 16 17 18 19 20 21 22 23 24 25
374
FTUS43 KBIS 260820 AAB
TAFBIS
TAF AMD
KBIS 260820Z 2608/2706 32008KT P6SM SCT028 SCT035
      TEMPO 2608/2610 BKN028
     FM261900 18007KT P6SM BKN035
     FM270000 17004KT P6SM OVC025=

USA.gov is the U.S. government's official web portal to all federal, state and local government web resources and services.